KAFF

Usaf Academy Afld Airport

Colorado Springs, Colorado, USA
METAR KAFF 180758Z AUTO 36006KT 10SM CLR M10/M13 A2993 RMK AO2 SLP183 T11021135
Observed Flight Rules
Dec-18 @ 07:58 UTC (51 minutes ago) Visual Flight Rules
Wind Visibility Clouds
360° at 6 knots 10 miles
  • Clear skies
Temperatures Readings
Current -10°C / 14°F
Dewpoint -14°C / 7°F
Humidity 73%
Altimeter 29.93" Hg
Pressure 1018.3 hPa
Elevation 2003
METAR KAFF 180758Z AUTO 36006KT 10SM CLR M10/M13 A2993 RMK AO2 SLP183 T11021135
Observed Flight Rules
Dec-18 @ 07:58 UTC
(51 minutes ago)
VFR
Wind Visibility
360° at 6 knots 10 miles
Clouds
  • Clear skies
Temperature Dewpoint
-10°C / 14°F -14°C / 7°F
Humidity Altimeter Pressure
73% 29.93" Hg 1018.3 hPa